createdAt,value
2019-05-16T00:00:03.363Z,11.60
2019-05-16T00:01:03.344Z,11.54
2019-05-16T00:02:03.321Z,11.51
2019-05-16T00:03:03.300Z,11.49
2019-05-16T00:04:03.279Z,11.49
2019-05-16T00:05:03.260Z,11.44
2019-05-16T00:06:03.238Z,11.46
2019-05-16T00:07:03.222Z,11.52
2019-05-16T00:08:03.230Z,11.52
2019-05-16T00:09:03.174Z,11.49
2019-05-16T00:10:03.154Z,11.40
2019-05-16T00:11:03.132Z,11.51
2019-05-16T00:12:03.111Z,11.43
2019-05-16T00:13:03.094Z,11.44
2019-05-16T00:14:03.073Z,11.47
2019-05-16T00:15:03.047Z,11.49
2019-05-16T00:16:03.028Z,11.52
2019-05-16T00:17:03.007Z,11.44
2019-05-16T00:18:02.988Z,11.51
2019-05-16T00:19:02.964Z,11.43
2019-05-16T00:20:02.947Z,11.43
2019-05-16T00:21:02.925Z,11.40
2019-05-16T00:22:02.910Z,11.49
2019-05-16T00:23:02.883Z,11.42
2019-05-16T00:24:02.860Z,11.44
2019-05-16T00:25:02.844Z,11.44
2019-05-16T00:26:02.831Z,11.32
2019-05-16T00:27:02.796Z,11.35
2019-05-16T00:28:02.774Z,11.40
2019-05-16T00:29:02.755Z,11.40
2019-05-16T00:30:02.736Z,11.42
2019-05-16T00:31:02.749Z,11.54
2019-05-16T00:32:02.691Z,11.43
2019-05-16T00:33:02.675Z,11.37
2019-05-16T00:34:02.649Z,11.37
2019-05-16T00:35:02.628Z,11.39
2019-05-16T00:36:05.897Z,11.39
2019-05-16T00:37:02.587Z,11.39
2019-05-16T00:38:02.567Z,11.35
2019-05-16T00:39:02.543Z,11.40
2019-05-16T00:40:02.534Z,11.43
2019-05-16T00:41:02.501Z,11.37
2019-05-16T00:42:02.483Z,11.40
2019-05-16T00:43:02.462Z,11.42
2019-05-16T00:44:02.447Z,11.52
2019-05-16T00:45:02.419Z,11.36
2019-05-16T00:46:02.403Z,11.46
2019-05-16T00:47:02.382Z,11.42
2019-05-16T00:48:02.356Z,11.42
2019-05-16T00:49:02.347Z,11.44
2019-05-16T00:50:02.329Z,11.46
2019-05-16T00:51:02.321Z,11.42
2019-05-16T00:52:02.275Z,11.47
2019-05-16T00:53:02.251Z,11.35
2019-05-16T00:54:02.232Z,11.29
2019-05-16T00:55:02.213Z,11.32
2019-05-16T00:56:02.190Z,11.33
2019-05-16T00:57:02.166Z,11.36
2019-05-16T00:58:02.150Z,11.35
2019-05-16T00:59:02.164Z,11.36
2019-05-16T01:00:02.113Z,11.35
2019-05-16T01:01:02.083Z,11.33
2019-05-16T01:02:02.065Z,11.29
2019-05-16T01:03:02.046Z,11.35
2019-05-16T01:04:02.021Z,11.29
2019-05-16T01:05:02.012Z,11.33
2019-05-16T01:06:01.982Z,11.33
2019-05-16T01:07:01.974Z,11.36
2019-05-16T01:08:01.938Z,11.22
2019-05-16T01:09:01.915Z,11.24
2019-05-16T01:10:01.895Z,11.25
2019-05-16T01:11:01.882Z,11.22
2019-05-16T01:12:01.853Z,11.28
2019-05-16T01:13:01.832Z,11.29
2019-05-16T01:14:01.811Z,11.28
2019-05-16T01:15:01.790Z,11.29
2019-05-16T01:16:01.771Z,11.17
2019-05-16T01:17:01.746Z,11.18
2019-05-16T01:18:01.725Z,11.27
2019-05-16T01:19:01.704Z,11.33
2019-05-16T01:20:01.690Z,11.21
2019-05-16T01:21:01.663Z,11.27
2019-05-16T01:22:01.642Z,11.15
2019-05-16T01:23:01.620Z,11.22
2019-05-16T01:24:01.598Z,11.17
2019-05-16T01:25:01.581Z,11.11
2019-05-16T01:26:01.557Z,11.15
2019-05-16T01:27:01.539Z,11.11
2019-05-16T01:28:01.515Z,11.10
2019-05-16T01:29:01.677Z,11.11
2019-05-16T01:30:01.477Z,11.17
2019-05-16T01:31:01.456Z,11.18
2019-05-16T01:32:01.434Z,11.11
2019-05-16T01:33:01.411Z,11.09
2019-05-16T01:34:01.397Z,11.11
2019-05-16T01:35:01.368Z,11.07
2019-05-16T01:36:01.353Z,11.11
2019-05-16T01:37:01.323Z,11.10
2019-05-16T01:38:01.306Z,11.11
2019-05-16T01:39:01.286Z,11.11
2019-05-16T01:40:01.267Z,11.14
2019-05-16T01:41:01.248Z,11.10
2019-05-16T01:42:01.222Z,11.18
2019-05-16T01:43:01.196Z,11.14
2019-05-16T01:44:01.173Z,11.14
2019-05-16T01:45:01.156Z,11.11
2019-05-16T01:46:01.134Z,11.17
2019-05-16T01:47:01.112Z,11.11
2019-05-16T01:48:01.089Z,11.17
2019-05-16T01:49:01.071Z,11.11
2019-05-16T01:50:01.056Z,11.18
2019-05-16T01:51:01.029Z,11.15
2019-05-16T01:52:01.007Z,11.18
2019-05-16T01:53:00.985Z,11.11
2019-05-16T01:54:00.966Z,11.14
2019-05-16T01:55:00.943Z,11.11
2019-05-16T01:56:00.922Z,11.09
2019-05-16T01:57:00.901Z,11.10
2019-05-16T01:58:00.880Z,11.14
2019-05-16T01:59:00.866Z,11.15
2019-05-16T02:00:00.840Z,11.10
2019-05-16T02:01:11.342Z,11.09
2019-05-16T02:02:01.040Z,11.15
2019-05-16T02:03:00.778Z,11.07
2019-05-16T02:04:00.753Z,11.06
2019-05-16T02:05:00.742Z,11.03
2019-05-16T02:06:00.722Z,11.10
2019-05-16T02:07:00.696Z,11.09
2019-05-16T02:08:00.670Z,11.07
2019-05-16T02:09:00.649Z,11.10
2019-05-16T02:10:00.628Z,11.09
2019-05-16T02:11:00.608Z,11.10
2019-05-16T02:12:00.586Z,11.15
2019-05-16T02:13:00.562Z,11.11
2019-05-16T02:14:00.543Z,11.14
2019-05-16T02:15:00.521Z,11.11
2019-05-16T02:16:00.505Z,11.11
2019-05-16T02:17:00.480Z,11.10
2019-05-16T02:18:00.458Z,10.99
2019-05-16T02:19:00.437Z,10.97
2019-05-16T02:20:00.416Z,11.04
2019-05-16T02:21:01.370Z,10.97
2019-05-16T02:22:00.374Z,11.02
2019-05-16T02:23:00.356Z,10.97
2019-05-16T02:24:02.043Z,10.92
2019-05-16T02:25:00.310Z,10.97
2019-05-16T02:26:00.289Z,10.99
2019-05-16T02:27:00.268Z,10.99
2019-05-16T02:28:00.251Z,11.03
2019-05-16T02:29:00.979Z,11.03
2019-05-16T02:30:00.203Z,10.94
2019-05-16T02:31:01.362Z,10.94
2019-05-16T02:32:01.983Z,10.91
2019-05-16T02:33:01.012Z,10.92
2019-05-16T02:34:01.258Z,10.88
2019-05-16T02:35:01.291Z,10.92
2019-05-16T02:36:01.686Z,10.86
2019-05-16T02:37:18.861Z,10.81
2019-05-16T02:38:00.985Z,10.81
2019-05-16T02:39:01.895Z,10.73
2019-05-16T02:40:01.211Z,10.70
2019-05-16T02:41:03.118Z,10.68
2019-05-16T02:42:01.025Z,10.70
2019-05-16T02:43:01.781Z,10.70
2019-05-16T02:44:01.162Z,10.71
2019-05-16T02:45:02.310Z,10.73
2019-05-16T02:46:01.307Z,10.67
2019-05-16T02:47:01.532Z,10.63
2019-05-16T02:48:01.311Z,10.60
2019-05-16T02:49:00.872Z,10.59
2019-05-16T02:50:01.112Z,10.53
2019-05-16T02:51:01.801Z,10.53
2019-05-16T02:52:01.335Z,10.48
2019-05-16T02:53:01.438Z,10.47
2019-05-16T02:54:01.353Z,10.60
2019-05-16T02:55:00.870Z,10.48
2019-05-16T02:56:01.340Z,10.52
2019-05-16T02:57:01.391Z,10.52
2019-05-16T02:58:00.695Z,10.45
2019-05-16T02:59:01.646Z,10.55
2019-05-16T03:00:01.734Z,10.47
2019-05-16T03:01:01.816Z,10.41
2019-05-16T03:02:00.889Z,10.40
2019-05-16T03:03:01.144Z,10.44
2019-05-16T03:04:01.726Z,10.42
2019-05-16T03:05:00.998Z,10.44
2019-05-16T03:06:01.363Z,10.44
2019-05-16T03:07:00.607Z,10.51
2019-05-16T03:08:01.317Z,10.38
2019-05-16T03:09:04.679Z,10.30
2019-05-16T03:10:01.591Z,10.42
2019-05-16T03:11:01.008Z,10.47
2019-05-16T03:12:01.339Z,10.52
2019-05-16T03:13:00.843Z,10.45
2019-05-16T03:14:00.556Z,10.42
2019-05-16T03:15:02.263Z,10.41
2019-05-16T03:16:00.613Z,10.36
2019-05-16T03:17:00.977Z,10.25
2019-05-16T03:18:03.805Z,10.29
2019-05-16T03:19:01.214Z,10.30
2019-05-16T03:20:01.479Z,10.33
2019-05-16T03:21:00.572Z,10.30
2019-05-16T03:22:01.183Z,10.33
2019-05-16T03:23:01.938Z,10.29
2019-05-16T03:24:00.863Z,10.20
2019-05-16T03:25:01.093Z,10.14
2019-05-16T03:26:00.988Z,10.15
2019-05-16T03:27:01.605Z,10.17
2019-05-16T03:28:01.768Z,10.18
2019-05-16T03:29:00.969Z,10.18
2019-05-16T03:30:01.674Z,10.17
2019-05-16T03:31:04.349Z,10.14
2019-05-16T03:32:02.980Z,10.15
2019-05-16T03:33:04.281Z,10.18
2019-05-16T03:34:06.557Z,10.20
2019-05-16T03:35:04.080Z,10.15
2019-05-16T03:36:04.007Z,10.20
2019-05-16T03:37:04.284Z,10.18
2019-05-16T03:38:03.989Z,10.09
2019-05-16T03:39:01.236Z,10.07
2019-05-16T03:40:00.618Z,10.22
2019-05-16T03:41:01.003Z,10.15
2019-05-16T03:42:01.063Z,10.20
2019-05-16T03:43:01.360Z,10.15
2019-05-16T03:44:01.334Z,10.20
2019-05-16T03:45:01.627Z,10.20
2019-05-16T03:46:02.146Z,10.14
2019-05-16T03:47:01.026Z,10.17
2019-05-16T03:48:02.307Z,10.04
2019-05-16T03:49:02.086Z,10.09
2019-05-16T03:50:00.674Z,10.23
2019-05-16T03:51:00.869Z,10.18
2019-05-16T03:52:01.605Z,10.17
2019-05-16T03:53:01.274Z,10.26
2019-05-16T03:53:58.390Z,10.27
2019-05-16T03:55:01.390Z,10.29
2019-05-16T03:56:01.583Z,10.22
2019-05-16T03:57:00.530Z,10.27
2019-05-16T03:58:01.178Z,10.25
2019-05-16T03:59:01.083Z,10.20
2019-05-16T04:00:00.628Z,10.22
2019-05-16T04:01:01.848Z,10.18
2019-05-16T04:02:01.237Z,10.11
2019-05-16T04:03:01.064Z,10.23
2019-05-16T04:04:01.409Z,10.15
2019-05-16T04:05:01.366Z,10.22
2019-05-16T04:06:00.784Z,10.22
2019-05-16T04:07:01.112Z,10.15
2019-05-16T04:08:11.307Z,10.14
2019-05-16T04:09:01.245Z,10.18
2019-05-16T04:09:58.042Z,10.09
2019-05-16T04:11:01.005Z,10.18
2019-05-16T04:11:57.998Z,10.14
2019-05-16T04:13:00.896Z,10.14
2019-05-16T04:13:57.959Z,10.15
2019-05-16T04:14:57.933Z,10.15
2019-05-16T04:16:00.966Z,10.14
2019-05-16T04:17:01.161Z,10.15
2019-05-16T04:17:57.874Z,10.17
2019-05-16T04:18:57.855Z,10.08
2019-05-16T04:19:57.827Z,10.11
2019-05-16T04:21:00.727Z,10.18
2019-05-16T04:22:01.049Z,10.12
2019-05-16T04:23:00.889Z,10.23
2019-05-16T04:24:01.005Z,10.09
2019-05-16T04:24:57.722Z,10.07
2019-05-16T04:26:00.446Z,10.15
2019-05-16T04:27:00.778Z,10.09
2019-05-16T04:27:57.654Z,10.07
2019-05-16T04:29:00.545Z,10.09
2019-05-16T04:30:01.202Z,10.07
2019-05-16T04:30:57.591Z,10.11
2019-05-16T04:31:57.567Z,10.12
2019-05-16T04:32:57.545Z,10.15
2019-05-16T04:34:00.843Z,10.07
2019-05-16T04:34:57.506Z,10.15
2019-05-16T04:35:57.487Z,10.02
2019-05-16T04:37:00.886Z,10.07
2019-05-16T04:37:57.439Z,10.15
2019-05-16T04:38:57.417Z,10.07
2019-05-16T04:39:57.394Z,10.05
2019-05-16T04:40:57.373Z,10.09
2019-05-16T04:41:57.357Z,10.02
2019-05-16T04:42:57.329Z,10.08
2019-05-16T04:44:01.449Z,10.09
2019-05-16T04:44:57.287Z,10.04
2019-05-16T04:45:57.262Z,10.18
2019-05-16T04:46:57.244Z,10.15
2019-05-16T04:48:00.228Z,10.18
2019-05-16T04:48:57.204Z,10.26
2019-05-16T04:49:57.179Z,10.23
2019-05-16T04:50:57.153Z,10.22
2019-05-16T04:52:00.372Z,10.27
2019-05-16T04:52:57.114Z,10.20
2019-05-16T04:53:57.097Z,10.20
2019-05-16T04:54:57.072Z,10.17
2019-05-16T04:55:57.067Z,10.14
2019-05-16T04:56:57.046Z,10.11
2019-05-16T04:57:57.005Z,10.11
2019-05-16T04:58:56.986Z,10.15
2019-05-16T04:59:56.962Z,10.11
2019-05-16T05:00:56.938Z,10.07
2019-05-16T05:01:56.922Z,10.02
2019-05-16T05:02:56.899Z,10.17
2019-05-16T05:04:06.626Z,10.14
2019-05-16T05:04:56.851Z,10.08
2019-05-16T05:05:56.830Z,10.17
2019-05-16T05:06:56.812Z,10.14
2019-05-16T05:07:56.787Z,10.18
2019-05-16T05:08:58.698Z,10.14
2019-05-16T05:09:56.751Z,10.12
2019-05-16T05:10:56.725Z,10.14
2019-05-16T05:12:00.430Z,10.08
2019-05-16T05:12:56.680Z,10.20
2019-05-16T05:13:56.670Z,10.15
2019-05-16T05:14:56.638Z,10.23
2019-05-16T05:15:56.613Z,10.27
2019-05-16T05:16:56.594Z,10.27
2019-05-16T05:17:56.572Z,10.26
2019-05-16T05:18:56.550Z,10.27
2019-05-16T05:19:56.538Z,10.33
2019-05-16T05:20:56.506Z,10.27
2019-05-16T05:21:56.497Z,10.33
2019-05-16T05:22:56.464Z,10.41
2019-05-16T05:23:56.441Z,10.38
2019-05-16T05:24:56.418Z,10.38
2019-05-16T05:25:56.398Z,10.44
2019-05-16T05:26:56.376Z,10.41
2019-05-16T05:27:56.359Z,10.36
2019-05-16T05:28:56.334Z,10.42
2019-05-16T05:29:56.311Z,10.30
2019-05-16T05:30:56.289Z,10.34
2019-05-16T05:31:56.280Z,10.42
2019-05-16T05:32:56.250Z,10.45
2019-05-16T05:33:56.226Z,10.53
2019-05-16T05:34:56.206Z,10.47
2019-05-16T05:35:56.188Z,10.67
2019-05-16T05:36:56.161Z,10.60
2019-05-16T05:37:56.141Z,10.53
2019-05-16T05:39:08.995Z,10.52
2019-05-16T05:39:56.096Z,10.48
2019-05-16T05:40:56.074Z,10.51
2019-05-16T05:41:56.053Z,10.47
2019-05-16T05:42:56.032Z,10.38
2019-05-16T05:43:56.010Z,10.40
2019-05-16T05:44:55.989Z,10.45
2019-05-16T05:45:55.966Z,10.40
2019-05-16T05:46:55.947Z,10.52
2019-05-16T05:47:55.924Z,10.55
2019-05-16T05:48:55.907Z,10.52
2019-05-16T05:49:55.884Z,10.41
2019-05-16T05:50:55.861Z,10.48
2019-05-16T05:51:55.836Z,10.51
2019-05-16T05:52:55.817Z,10.55
2019-05-16T05:53:55.793Z,10.55
2019-05-16T05:54:55.780Z,10.52
2019-05-16T05:55:55.754Z,10.68
2019-05-16T05:56:55.731Z,10.53
2019-05-16T05:57:55.711Z,10.66
2019-05-16T05:58:58.103Z,10.53
2019-05-16T05:59:55.665Z,10.51
2019-05-16T06:00:55.645Z,10.59
2019-05-16T06:01:55.625Z,10.53
2019-05-16T06:02:55.605Z,10.60
2019-05-16T06:03:55.581Z,10.42
2019-05-16T06:04:55.564Z,10.48
2019-05-16T06:05:55.543Z,10.44
2019-05-16T06:06:55.519Z,10.41
2019-05-16T06:07:55.495Z,10.40
2019-05-16T06:08:55.471Z,10.38
2019-05-16T06:09:56.564Z,10.42
2019-05-16T06:10:55.429Z,10.47
2019-05-16T06:11:55.411Z,10.36
2019-05-16T06:12:55.394Z,10.47
2019-05-16T06:13:55.371Z,10.42
2019-05-16T06:14:55.349Z,10.51
2019-05-16T06:15:55.321Z,10.51
2019-05-16T06:16:55.307Z,10.45
2019-05-16T06:17:55.278Z,10.48
2019-05-16T06:18:56.812Z,10.51
2019-05-16T06:19:55.238Z,10.51
2019-05-16T06:20:55.212Z,10.51
2019-05-16T06:21:55.205Z,10.44
2019-05-16T06:22:55.182Z,10.41
2019-05-16T06:23:55.155Z,10.32
2019-05-16T06:24:55.140Z,10.48
2019-05-16T06:25:55.107Z,10.42
2019-05-16T06:26:55.086Z,10.47
2019-05-16T06:27:55.068Z,10.44
2019-05-16T06:28:55.039Z,10.53
2019-05-16T06:29:57.376Z,10.42
2019-05-16T06:30:55.013Z,10.47
2019-05-16T06:31:54.975Z,10.45
2019-05-16T06:32:54.955Z,10.44
2019-05-16T06:33:54.937Z,10.42
2019-05-16T06:34:54.911Z,10.55
2019-05-16T06:35:54.887Z,10.55
2019-05-16T06:36:54.873Z,10.51
2019-05-16T06:37:54.845Z,10.53
2019-05-16T06:38:54.834Z,10.53
2019-05-16T06:39:54.801Z,10.51
2019-05-16T06:40:54.781Z,10.44
2019-05-16T06:41:54.758Z,10.45
2019-05-16T06:42:54.740Z,10.38
2019-05-16T06:43:54.717Z,10.36
2019-05-16T06:44:54.695Z,10.55
2019-05-16T06:45:54.673Z,10.53
2019-05-16T06:47:08.857Z,10.55
2019-05-16T06:47:54.628Z,10.55
2019-05-16T06:48:54.606Z,10.56
2019-05-16T06:49:54.585Z,10.66
2019-05-16T06:50:54.570Z,10.52
2019-05-16T06:51:54.562Z,10.47
2019-05-16T06:52:54.519Z,10.61
2019-05-16T06:53:54.497Z,10.61
2019-05-16T06:54:54.481Z,10.70
2019-05-16T06:55:54.456Z,10.66
2019-05-16T06:56:54.435Z,10.66
2019-05-16T06:57:57.149Z,10.63
2019-05-16T06:58:54.390Z,10.64
2019-05-16T06:59:54.368Z,10.74
2019-05-16T07:00:54.354Z,10.68
2019-05-16T07:01:54.328Z,10.70
2019-05-16T07:02:54.305Z,10.79
2019-05-16T07:03:54.282Z,10.81
2019-05-16T07:04:54.264Z,10.78
2019-05-16T07:05:54.248Z,10.71
2019-05-16T07:06:59.249Z,10.85
2019-05-16T07:07:54.197Z,10.76
2019-05-16T07:08:54.176Z,10.82
2019-05-16T07:10:00.232Z,10.79
2019-05-16T07:10:54.135Z,10.68
2019-05-16T07:11:54.109Z,10.61
2019-05-16T07:12:54.100Z,10.63
2019-05-16T07:13:54.076Z,10.81
2019-05-16T07:14:54.047Z,10.79
2019-05-16T07:15:54.029Z,10.76
2019-05-16T07:16:54.005Z,10.76
2019-05-16T07:17:53.978Z,10.76
2019-05-16T07:18:53.960Z,10.66
2019-05-16T07:19:53.941Z,10.68
2019-05-16T07:20:53.920Z,10.63
2019-05-16T07:21:53.899Z,10.64
2019-05-16T07:22:53.879Z,10.55
2019-05-16T07:23:53.850Z,10.68
2019-05-16T07:24:53.835Z,10.68
2019-05-16T07:25:53.816Z,10.81
2019-05-16T07:26:53.786Z,10.82
2019-05-16T07:27:53.772Z,10.89
2019-05-16T07:28:53.749Z,10.86
2019-05-16T07:29:53.733Z,10.99
2019-05-16T07:30:53.702Z,11.00
2019-05-16T07:31:53.689Z,11.10
2019-05-16T07:32:53.657Z,11.17
2019-05-16T07:33:53.637Z,11.19
2019-05-16T07:34:53.621Z,11.35
2019-05-16T07:35:53.601Z,11.35
2019-05-16T07:36:53.570Z,11.35
2019-05-16T07:37:53.549Z,11.33
2019-05-16T07:38:53.536Z,11.37
2019-05-16T07:39:53.506Z,11.37
2019-05-16T07:40:53.485Z,11.37
2019-05-16T07:41:53.463Z,11.35
2019-05-16T07:42:53.448Z,11.18
2019-05-16T07:43:53.422Z,11.18
2019-05-16T07:44:53.408Z,11.10
2019-05-16T07:45:53.388Z,11.00
2019-05-16T07:46:53.362Z,11.04
2019-05-16T07:47:53.341Z,11.07
2019-05-16T07:48:53.314Z,11.11
2019-05-16T07:49:53.292Z,11.11
2019-05-16T07:50:53.271Z,11.17
2019-05-16T07:51:53.249Z,11.18
2019-05-16T07:52:53.230Z,11.18
2019-05-16T07:53:53.212Z,11.21
2019-05-16T07:54:53.188Z,11.21
2019-05-16T07:55:53.163Z,11.24
2019-05-16T07:56:59.647Z,11.35
2019-05-16T07:57:53.122Z,11.25
2019-05-16T07:58:53.100Z,11.17
2019-05-16T07:59:53.076Z,11.27
2019-05-16T08:01:02.869Z,11.19
2019-05-16T08:01:54.159Z,11.27
2019-05-16T08:02:53.014Z,11.32
2019-05-16T08:03:52.999Z,11.37
2019-05-16T08:04:52.975Z,11.35
2019-05-16T08:05:52.959Z,11.39
2019-05-16T08:06:52.929Z,11.40
2019-05-16T08:07:52.906Z,11.51
2019-05-16T08:08:52.889Z,11.60
2019-05-16T08:09:52.864Z,11.79
2019-05-16T08:10:52.844Z,11.96
2019-05-16T08:11:52.820Z,12.02
2019-05-16T08:12:52.800Z,11.94
2019-05-16T08:13:52.786Z,11.78
2019-05-16T08:14:52.757Z,11.88
2019-05-16T08:15:52.740Z,11.76
2019-05-16T08:16:52.725Z,11.73
2019-05-16T08:17:52.715Z,11.75
2019-05-16T08:18:52.674Z,11.95
2019-05-16T08:19:52.653Z,12.13
2019-05-16T08:20:52.900Z,12.09
2019-05-16T08:21:52.610Z,12.20
2019-05-16T08:22:52.588Z,12.16
2019-05-16T08:23:52.577Z,12.23
2019-05-16T08:24:52.554Z,12.17
2019-05-16T08:25:52.544Z,12.05
2019-05-16T08:26:52.504Z,12.10
2019-05-16T08:27:52.481Z,12.12
2019-05-16T08:28:52.461Z,12.20
2019-05-16T08:29:52.483Z,12.10
2019-05-16T08:30:53.186Z,11.99
2019-05-16T08:31:53.018Z,11.96
2019-05-16T08:32:53.089Z,11.82
2019-05-16T08:33:54.910Z,11.96
2019-05-16T08:34:52.336Z,12.04
2019-05-16T08:35:52.312Z,11.98
2019-05-16T08:36:52.297Z,12.05
2019-05-16T08:37:52.271Z,11.99
2019-05-16T08:38:52.253Z,12.13
2019-05-16T08:39:52.229Z,12.14
2019-05-16T08:41:08.183Z,12.13
2019-05-16T08:41:52.302Z,12.19
2019-05-16T08:42:52.207Z,12.17
2019-05-16T08:43:53.481Z,12.04
2019-05-16T08:44:52.199Z,12.02
2019-05-16T08:45:52.191Z,11.79
2019-05-16T08:48:54.058Z,11.98
2019-05-16T08:49:52.388Z,12.04
2019-05-16T08:50:54.607Z,12.05
2019-05-16T08:51:53.396Z,12.17
2019-05-16T08:52:53.065Z,12.21
2019-05-16T08:53:51.948Z,12.19
2019-05-16T08:54:52.030Z,12.28
2019-05-16T08:55:51.894Z,12.54
2019-05-16T08:56:51.904Z,12.56
2019-05-16T08:57:52.979Z,12.72
2019-05-16T08:59:52.542Z,12.74
2019-05-16T09:00:55.378Z,12.83
2019-05-16T09:01:58.549Z,12.83
2019-05-16T09:02:52.576Z,12.78
2019-05-16T09:03:52.364Z,12.85
2019-05-16T09:04:53.345Z,12.72
2019-05-16T09:05:53.517Z,12.78
2019-05-16T09:06:52.595Z,12.79
2019-05-16T09:08:00.234Z,12.86
2019-05-16T09:08:51.639Z,12.72
2019-05-16T09:09:52.332Z,12.67
2019-05-16T09:10:21.437Z,11.99
2019-05-16T09:10:40.143Z,12.74
2019-05-16T09:11:01.689Z,12.59
2019-05-16T09:11:51.566Z,12.65
2019-05-16T09:12:51.554Z,12.68
2019-05-16T09:13:51.532Z,12.68
2019-05-16T09:14:51.502Z,12.85
2019-05-16T09:15:51.481Z,12.74
2019-05-16T09:16:51.468Z,12.71
2019-05-16T09:17:51.448Z,12.75
2019-05-16T09:18:30.616Z,11.86
2019-05-16T09:18:51.593Z,12.64
2019-05-16T09:19:51.398Z,12.70
2019-05-16T09:20:51.395Z,12.67
2019-05-16T09:21:51.358Z,12.79
2019-05-16T09:22:51.341Z,12.78
2019-05-16T09:23:51.314Z,12.85
2019-05-16T09:24:51.295Z,12.85
2019-05-16T09:25:51.276Z,12.86
2019-05-16T09:26:51.254Z,12.75
2019-05-16T09:27:51.275Z,12.83
2019-05-16T09:28:51.213Z,12.78
2019-05-16T09:29:51.193Z,12.93
2019-05-16T09:30:51.176Z,12.82
2019-05-16T09:32:07.994Z,12.79
2019-05-16T09:32:51.130Z,12.82
2019-05-16T09:33:51.111Z,12.90
2019-05-16T09:34:51.148Z,13.01
2019-05-16T09:35:51.124Z,12.92
2019-05-16T09:36:51.049Z,13.04
2019-05-16T09:37:51.028Z,13.05
2019-05-16T09:38:51.009Z,12.93
2019-05-16T09:39:50.985Z,12.95
2019-05-16T09:40:50.971Z,12.89
2019-05-16T09:41:54.780Z,12.95
2019-05-16T09:42:50.929Z,12.93
2019-05-16T09:43:50.907Z,12.77
2019-05-16T09:44:50.884Z,12.95
2019-05-16T09:45:50.865Z,12.96
2019-05-16T09:46:50.845Z,13.11
2019-05-16T09:47:50.825Z,13.20
2019-05-16T09:49:11.758Z,13.19
2019-05-16T09:49:50.781Z,13.32
2019-05-16T09:50:50.771Z,13.25
2019-05-16T09:51:50.745Z,13.29
2019-05-16T09:52:50.720Z,13.20
2019-05-16T09:53:50.701Z,13.33
2019-05-16T09:54:50.681Z,13.41
2019-05-16T09:55:50.659Z,13.28
2019-05-16T09:56:50.642Z,13.38
2019-05-16T09:57:50.620Z,13.33
2019-05-16T09:58:50.611Z,13.29
2019-05-16T09:59:50.582Z,13.20
2019-05-16T10:00:50.559Z,13.17
2019-05-16T10:01:50.537Z,13.17
2019-05-16T10:02:50.526Z,13.22
2019-05-16T10:03:50.503Z,13.29
2019-05-16T10:04:50.475Z,13.25
2019-05-16T10:05:50.459Z,13.39
2019-05-16T10:06:50.441Z,13.41
2019-05-16T10:07:50.429Z,13.36
2019-05-16T10:08:50.394Z,13.48
2019-05-16T10:09:50.528Z,13.57
2019-05-16T10:10:50.353Z,13.69
2019-05-16T10:12:05.480Z,13.73
2019-05-16T10:12:50.312Z,13.69
2019-05-16T10:13:50.306Z,13.66
2019-05-16T10:14:50.273Z,13.78
2019-05-16T10:15:50.253Z,13.42
2019-05-16T10:16:50.232Z,13.20
2019-05-16T10:17:50.217Z,13.14
2019-05-16T10:18:50.193Z,13.11
2019-05-16T10:19:50.170Z,13.03
2019-05-16T10:20:50.151Z,12.95
2019-05-16T10:21:50.168Z,13.03
2019-05-16T10:22:50.592Z,12.96
2019-05-16T10:23:50.090Z,13.04
2019-05-16T10:24:50.071Z,12.92
2019-05-16T10:25:50.055Z,13.00
2019-05-16T10:26:53.828Z,12.93
2019-05-16T10:27:50.027Z,12.92
2019-05-16T10:28:49.996Z,12.83
2019-05-16T10:29:49.971Z,13.04
2019-05-16T10:30:50.339Z,13.03
2019-05-16T10:31:53.300Z,13.14
2019-05-16T10:32:49.919Z,13.14
2019-05-16T10:33:49.886Z,13.14
2019-05-16T10:34:49.864Z,12.97
2019-05-16T10:35:49.847Z,12.82
2019-05-16T10:36:49.826Z,12.96
2019-05-16T10:37:49.804Z,13.05
2019-05-16T10:38:49.793Z,13.04
2019-05-16T10:39:49.765Z,13.22
2019-05-16T10:40:49.752Z,13.17
2019-05-16T10:41:49.722Z,13.26
2019-05-16T10:42:49.713Z,13.19
2019-05-16T10:43:49.683Z,13.11
2019-05-16T10:44:49.660Z,13.03
2019-05-16T10:45:49.640Z,13.01
2019-05-16T10:46:49.648Z,13.11
2019-05-16T10:47:49.609Z,13.15
2019-05-16T10:48:49.580Z,13.05
2019-05-16T10:49:49.559Z,13.07
2019-05-16T10:50:49.583Z,12.92
2019-05-16T10:51:49.556Z,12.95
2019-05-16T10:53:12.926Z,12.97
2019-05-16T10:54:05.706Z,12.92
2019-05-16T10:54:58.143Z,12.93
2019-05-16T10:55:49.437Z,12.93
2019-05-16T10:56:49.460Z,12.86
2019-05-16T10:57:49.508Z,12.79
2019-05-16T10:59:14.733Z,12.77
2019-05-16T11:00:05.297Z,12.72
2019-05-16T11:01:11.279Z,12.71
2019-05-16T11:01:49.318Z,12.78
2019-05-16T11:02:49.343Z,12.78
2019-05-16T11:03:49.431Z,12.78
2019-05-16T11:05:00.047Z,12.77
2019-05-16T11:06:02.933Z,12.85
2019-05-16T11:06:49.214Z,12.83
2019-05-16T11:07:52.931Z,12.83
2019-05-16T11:08:49.168Z,12.70
2019-05-16T11:09:58.545Z,12.64
2019-05-16T11:10:49.145Z,12.50
2019-05-16T11:11:49.106Z,12.49
2019-05-16T11:12:54.228Z,12.32
2019-05-16T11:13:51.076Z,12.49
2019-05-16T11:14:49.052Z,12.53
2019-05-16T11:15:49.026Z,12.49
2019-05-16T11:16:49.016Z,12.49
2019-05-16T11:17:48.984Z,12.68
2019-05-16T11:18:48.970Z,12.67
2019-05-16T11:19:48.945Z,12.57
2019-05-16T11:20:49.658Z,12.56
2019-05-16T11:21:48.899Z,12.71
2019-05-16T11:22:48.880Z,12.70
2019-05-16T11:23:48.860Z,12.68
2019-05-16T11:24:48.847Z,12.65
2019-05-16T11:25:48.821Z,12.62
2019-05-16T11:26:48.796Z,12.71
2019-05-16T11:27:48.773Z,12.70
2019-05-16T11:28:49.371Z,12.82
2019-05-16T11:29:48.733Z,12.83
2019-05-16T11:30:49.879Z,12.86
2019-05-16T11:31:48.691Z,12.78
2019-05-16T11:32:48.670Z,12.95
2019-05-16T11:33:48.660Z,12.87
2019-05-16T11:34:48.636Z,12.74
2019-05-16T11:35:48.619Z,12.75
2019-05-16T11:36:48.594Z,12.74
2019-05-16T11:37:48.578Z,12.79
2019-05-16T11:38:48.551Z,12.75
2019-05-16T11:39:48.531Z,12.79
2019-05-16T11:40:48.508Z,12.79
2019-05-16T11:41:48.486Z,12.79
2019-05-16T11:43:05.076Z,12.78
2019-05-16T11:43:48.449Z,13.00
2019-05-16T11:44:48.424Z,12.97
2019-05-16T11:45:48.402Z,13.04
2019-05-16T11:46:48.979Z,12.96
2019-05-16T11:47:48.362Z,13.22
2019-05-16T11:48:49.138Z,13.05
2019-05-16T11:49:48.318Z,13.07
2019-05-16T11:50:48.344Z,13.11
2019-05-16T11:51:48.330Z,13.20
2019-05-16T11:52:48.268Z,13.20
2019-05-16T11:53:48.242Z,13.04
2019-05-16T11:54:48.221Z,13.14
2019-05-16T11:55:55.480Z,13.10
2019-05-16T11:56:48.175Z,13.28
2019-05-16T11:57:48.155Z,13.36
2019-05-16T11:58:48.139Z,13.48
2019-05-16T11:59:48.118Z,13.70
2019-05-16T12:00:48.544Z,13.63
2019-05-16T12:01:48.078Z,13.48
2019-05-16T12:02:48.113Z,13.48
2019-05-16T12:03:48.035Z,13.59
2019-05-16T12:04:48.012Z,13.69
2019-05-16T12:05:48.676Z,13.54
2019-05-16T12:06:47.974Z,13.62
2019-05-16T12:07:48.810Z,13.59
2019-05-16T12:08:47.931Z,13.63
2019-05-16T12:09:55.178Z,13.75
2019-05-16T12:10:47.892Z,13.91
2019-05-16T12:11:47.870Z,14.07
2019-05-16T12:12:47.859Z,14.14
2019-05-16T12:13:47.879Z,14.00
2019-05-16T12:14:47.810Z,13.95
2019-05-16T12:15:47.792Z,13.81
2019-05-16T12:16:47.768Z,13.66
2019-05-16T12:18:00.396Z,13.66
2019-05-16T12:18:47.730Z,13.62
2019-05-16T12:19:50.283Z,13.66
2019-05-16T12:20:47.691Z,13.64
2019-05-16T12:21:47.674Z,13.60
2019-05-16T12:22:47.651Z,13.46
2019-05-16T12:23:47.627Z,13.60
2019-05-16T12:24:47.860Z,13.70
2019-05-16T12:25:47.770Z,13.87
2019-05-16T12:26:48.102Z,13.91
2019-05-16T12:27:48.131Z,13.81
2019-05-16T12:28:47.525Z,13.78
2019-05-16T12:29:54.169Z,13.85
2019-05-16T12:30:47.504Z,13.91
2019-05-16T12:31:57.508Z,14.09
2019-05-16T12:32:47.443Z,14.07
2019-05-16T12:33:47.981Z,14.06
2019-05-16T12:34:47.404Z,14.12
2019-05-16T12:35:47.670Z,13.82
2019-05-16T12:36:47.487Z,13.88
2019-05-16T12:37:48.141Z,13.70
2019-05-16T12:38:47.324Z,13.54
2019-05-16T12:39:47.316Z,13.62
2019-05-16T12:40:48.135Z,13.48
2019-05-16T12:41:49.207Z,13.42
2019-05-16T12:42:47.385Z,13.44
2019-05-16T12:43:52.671Z,13.28
2019-05-16T12:44:47.216Z,13.20
2019-05-16T12:45:47.470Z,13.29
2019-05-16T12:46:47.535Z,13.22
2019-05-16T12:47:47.447Z,13.11
2019-05-16T12:48:47.555Z,13.17
2019-05-16T12:49:47.336Z,12.95
2019-05-16T12:50:48.003Z,12.95
2019-05-16T12:51:47.061Z,13.01